Time;durP1;ratioP1;P1;durP2;ratioP2;P2;SDS_P1;SDS_P2;PMS_P1;PMS_P2;Temp;Humidity;BMP_temperature;BMP_pressure;BME280_temperature;BME280_humidity;BME280_pressure;Samples;Min_cycle;Max_cycle;Signal;HPM_P1;HPM_P2
2022/07/10 00:01:56;;;;;;;10.93;2.00;;;;;;;;;;5130739;28;20454;-71
2022/07/10 00:04:23;;;;;;;9.50;2.57;;;;;;;;;;5131404;28;20446;-74
2022/07/10 00:06:50;;;;;;;9.97;2.77;;;;;;;;;;5117524;28;20479;-72
2022/07/10 00:09:18;;;;;;;10.13;2.83;;;;;;;;;;5130608;28;20945;-70
2022/07/10 00:11:45;;;;;;;9.97;2.50;;;;;;;;;;5137455;27;20457;-74
2022/07/10 00:14:12;;;;;;;9.57;2.63;;;;;;;;;;5136964;27;20456;-73
2022/07/10 00:16:39;;;;;;;9.87;2.93;;;;;;;;;;5131119;28;20451;-73
2022/07/10 00:19:08;;;;;;;9.97;2.60;;;;;;;;;;5130721;28;20450;-73
2022/07/10 00:21:35;;;;;;;9.30;2.63;;;;;;;;;;5131336;28;20478;-73
2022/07/10 00:24:02;;;;;;;9.37;2.80;;;;;;;;;;5130233;28;20439;-72
2022/07/10 00:26:29;;;;;;;8.97;2.70;;;;;;;;;;5131184;28;20494;-75
2022/07/10 00:28:56;;;;;;;9.73;2.80;;;;;;;;;;5130681;28;20447;-70
2022/07/10 00:31:24;;;;;;;9.67;2.80;;;;;;;;;;5130073;28;20937;-73
2022/07/10 00:33:51;;;;;;;10.00;3.87;;;;;;;;;;5129786;28;20471;-77
2022/07/10 00:36:20;;;;;;;8.80;3.00;;;;;;;;;;5131286;27;20503;-71
2022/07/10 00:38:47;;;;;;;8.90;2.60;;;;;;;;;;5138691;27;20800;-72
2022/07/10 00:41:15;;;;;;;8.83;2.60;;;;;;;;;;5129668;28;20454;-73
2022/07/10 00:43:55;;;;;;;8.43;2.30;;;;;;;;;;5126616;28;20479;-78
2022/07/10 00:46:22;;;;;;;8.53;2.87;;;;;;;;;;5130639;27;20992;-79
2022/07/10 00:48:49;;;;;;;9.20;3.30;;;;;;;;;;5130939;28;20453;-74
2022/07/10 00:51:17;;;;;;;9.27;3.27;;;;;;;;;;5133586;27;20446;-74
2022/07/10 00:53:47;;;;;;;9.27;2.80;;;;;;;;;;5137073;27;20452;-82
2022/07/10 00:56:16;;;;;;;9.40;3.00;;;;;;;;;;5144869;27;20507;-76
2022/07/10 00:58:43;;;;;;;8.90;3.30;;;;;;;;;;5147453;27;20466;-75
2022/07/10 01:01:10;;;;;;;8.10;2.53;;;;;;;;;;5140675;27;20529;-72
2022/07/10 01:03:37;;;;;;;8.93;2.80;;;;;;;;;;5134434;27;20997;-74
2022/07/10 01:06:05;;;;;;;8.00;2.30;;;;;;;;;;5138550;27;20477;-73
2022/07/10 01:08:32;;;;;;;8.83;2.93;;;;;;;;;;5138423;27;20522;-71
2022/07/10 01:11:01;;;;;;;9.50;3.60;;;;;;;;;;5132391;27;20447;-74
2022/07/10 01:13:29;;;;;;;9.80;3.30;;;;;;;;;;5144755;27;20439;-72
2022/07/10 01:15:57;;;;;;;8.60;2.67;;;;;;;;;;5138970;27;20450;-74
2022/07/10 01:18:24;;;;;;;8.73;2.73;;;;;;;;;;5136501;27;20495;-71
2022/07/10 01:20:54;;;;;;;9.30;2.90;;;;;;;;;;5134951;27;20488;-73
2022/07/10 01:23:22;;;;;;;9.20;2.70;;;;;;;;;;5138539;27;20959;-74
2022/07/10 01:25:49;;;;;;;9.10;2.80;;;;;;;;;;5136897;27;20464;-76
2022/07/10 01:28:17;;;;;;;10.20;2.67;;;;;;;;;;5140741;27;20486;-72
2022/07/10 01:30:44;;;;;;;9.70;2.40;;;;;;;;;;5135402;27;20804;-72
2022/07/10 01:33:12;;;;;;;8.17;2.90;;;;;;;;;;5142248;27;20450;-71
2022/07/10 01:35:39;;;;;;;8.80;2.60;;;;;;;;;;5142406;27;20457;-74
2022/07/10 01:38:07;;;;;;;8.43;2.50;;;;;;;;;;5135773;27;20836;-70
2022/07/10 01:40:34;;;;;;;8.93;2.67;;;;;;;;;;5136247;27;20446;-69
2022/07/10 01:43:02;;;;;;;9.13;3.40;;;;;;;;;;5131981;27;20453;-69
2022/07/10 01:45:29;;;;;;;8.70;2.43;;;;;;;;;;5137296;27;20541;-74
2022/07/10 01:47:56;;;;;;;8.20;2.30;;;;;;;;;;5135629;27;20470;-73
2022/07/10 01:50:24;;;;;;;8.50;2.50;;;;;;;;;;5133128;27;20457;-74
2022/07/10 01:52:51;;;;;;;9.43;2.80;;;;;;;;;;5132784;27;20533;-80
2022/07/10 01:55:19;;;;;;;8.60;2.97;;;;;;;;;;5132538;27;20534;-79
2022/07/10 01:57:46;;;;;;;8.50;2.37;;;;;;;;;;5133169;27;20569;-81
2022/07/10 02:00:14;;;;;;;10.13;2.50;;;;;;;;;;5132345;27;20954;-69
2022/07/10 02:04:40;;;;;;;9.00;2.13;;;;;;;;;;5130477;27;20447;-78
2022/07/10 02:05:27;;;;;;;8.63;3.07;;;;;;;;;;5125239;27;20461;-78
2022/07/10 02:07:54;;;;;;;8.30;3.07;;;;;;;;;;5132219;27;20481;-79
2022/07/10 02:10:23;;;;;;;8.47;2.70;;;;;;;;;;5132474;27;20449;-77
2022/07/10 02:12:50;;;;;;;9.20;2.80;;;;;;;;;;5141096;27;20461;-74
2022/07/10 02:15:17;;;;;;;8.80;2.80;;;;;;;;;;5131731;27;20451;-74
2022/07/10 02:17:44;;;;;;;8.00;2.50;;;;;;;;;;5132906;27;20453;-74
2022/07/10 02:20:12;;;;;;;9.47;3.37;;;;;;;;;;5132105;27;20446;-74
2022/07/10 02:22:39;;;;;;;7.60;2.30;;;;;;;;;;5131440;27;20447;-73
2022/07/10 02:25:07;;;;;;;8.23;2.90;;;;;;;;;;5132505;27;20451;-74
2022/07/10 02:27:35;;;;;;;9.87;3.60;;;;;;;;;;5132536;27;20497;-74
2022/07/10 02:30:02;;;;;;;8.23;3.03;;;;;;;;;;5132495;27;20443;-74
2022/07/10 02:32:29;;;;;;;9.60;4.10;;;;;;;;;;5132040;27;20820;-73
2022/07/10 02:34:56;;;;;;;10.43;4.23;;;;;;;;;;5131821;27;20474;-73
2022/07/10 02:37:25;;;;;;;11.87;4.90;;;;;;;;;;5132034;27;20451;-73
2022/07/10 02:39:52;;;;;;;11.90;5.23;;;;;;;;;;5132124;27;20503;-73
2022/07/10 02:42:19;;;;;;;11.33;5.10;;;;;;;;;;5131396;27;20451;-73
2022/07/10 02:44:47;;;;;;;12.40;5.10;;;;;;;;;;5132468;27;20537;-74
2022/07/10 02:47:14;;;;;;;11.20;4.47;;;;;;;;;;5131359;27;20485;-74
2022/07/10 02:49:43;;;;;;;11.30;4.57;;;;;;;;;;5132863;27;20459;-74
2022/07/10 02:52:10;;;;;;;12.63;5.90;;;;;;;;;;5131442;27;20454;-73
2022/07/10 02:54:37;;;;;;;10.73;4.70;;;;;;;;;;5132106;27;20449;-73
2022/07/10 02:57:05;;;;;;;11.87;6.10;;;;;;;;;;5131083;27;20489;-73
2022/07/10 02:59:32;;;;;;;15.27;6.20;;;;;;;;;;5132236;27;20449;-74
2022/07/10 03:02:00;;;;;;;11.50;5.37;;;;;;;;;;5131170;27;20809;-73
2022/07/10 03:04:27;;;;;;;13.13;5.77;;;;;;;;;;5132070;27;20797;-74
2022/07/10 03:06:55;;;;;;;14.23;5.60;;;;;;;;;;5132078;27;20483;-74
2022/07/10 03:09:22;;;;;;;12.83;5.70;;;;;;;;;;5131959;27;20956;-73
2022/07/10 03:11:49;;;;;;;11.77;5.33;;;;;;;;;;5138783;27;20453;-73
2022/07/10 03:14:16;;;;;;;11.80;6.17;;;;;;;;;;5137046;27;20643;-73
2022/07/10 03:16:43;;;;;;;13.83;6.07;;;;;;;;;;5131886;27;20667;-73
2022/07/10 03:19:12;;;;;;;11.73;5.97;;;;;;;;;;5131510;27;20452;-73
2022/07/10 03:21:39;;;;;;;11.87;5.40;;;;;;;;;;5131250;27;20809;-73
2022/07/10 03:24:06;;;;;;;13.73;5.77;;;;;;;;;;5131408;27;20457;-73
2022/07/10 03:26:34;;;;;;;12.57;6.20;;;;;;;;;;5131621;27;20446;-74
2022/07/10 03:29:01;;;;;;;12.53;5.27;;;;;;;;;;5131260;27;20855;-73
2022/07/10 03:31:28;;;;;;;11.53;5.90;;;;;;;;;;5131780;27;20504;-73
2022/07/10 03:33:55;;;;;;;12.00;6.17;;;;;;;;;;5131523;27;20502;-74
2022/07/10 03:36:24;;;;;;;12.93;4.87;;;;;;;;;;5135744;27;20442;-73
2022/07/10 03:38:51;;;;;;;12.00;5.40;;;;;;;;;;5131518;27;20455;-74
2022/07/10 03:41:18;;;;;;;11.47;5.10;;;;;;;;;;5130582;27;20455;-73
2022/07/10 03:43:45;;;;;;;11.20;5.17;;;;;;;;;;5131958;27;20447;-74
2022/07/10 03:46:12;;;;;;;11.10;5.00;;;;;;;;;;5131383;28;20465;-73
2022/07/10 03:48:39;;;;;;;10.30;4.60;;;;;;;;;;5131172;28;20482;-73
2022/07/10 03:51:06;;;;;;;13.00;4.80;;;;;;;;;;5130965;28;20443;-74
2022/07/10 03:53:36;;;;;;;11.13;4.60;;;;;;;;;;5131489;28;20825;-74
2022/07/10 03:56:04;;;;;;;10.90;4.90;;;;;;;;;;5131260;28;20442;-73
2022/07/10 03:58:30;;;;;;;12.40;5.20;;;;;;;;;;5131194;27;20470;-74
2022/07/10 04:00:58;;;;;;;11.53;5.07;;;;;;;;;;5126861;27;20535;-73
2022/07/10 04:03:25;;;;;;;10.70;4.57;;;;;;;;;;5132592;28;20439;-74
2022/07/10 04:05:52;;;;;;;12.60;5.33;;;;;;;;;;5142447;27;20450;-74
2022/07/10 04:08:19;;;;;;;13.80;4.90;;;;;;;;;;5149394;28;20551;-74
2022/07/10 04:10:48;;;;;;;11.60;5.40;;;;;;;;;;5150599;27;20451;-74
2022/07/10 04:13:16;;;;;;;11.23;4.77;;;;;;;;;;5151297;27;20899;-74
2022/07/10 04:15:43;;;;;;;13.33;5.17;;;;;;;;;;5150407;28;20442;-75
2022/07/10 04:18:10;;;;;;;11.73;5.20;;;;;;;;;;5134995;28;20502;-74
2022/07/10 04:20:37;;;;;;;13.03;5.50;;;;;;;;;;5142082;28;20601;-74
2022/07/10 04:23:04;;;;;;;12.00;4.60;;;;;;;;;;5133238;28;20439;-74
2022/07/10 04:25:31;;;;;;;11.80;4.73;;;;;;;;;;5135452;27;20468;-74
2022/07/10 04:28:00;;;;;;;12.63;5.77;;;;;;;;;;5135758;27;20477;-74
2022/07/10 04:30:27;;;;;;;12.60;4.97;;;;;;;;;;5135965;27;20476;-73
2022/07/10 04:32:54;;;;;;;11.70;4.83;;;;;;;;;;5136251;27;20459;-73
2022/07/10 04:35:21;;;;;;;10.97;5.20;;;;;;;;;;5136548;27;20526;-74
2022/07/10 04:37:48;;;;;;;10.83;4.87;;;;;;;;;;5135948;27;20446;-73
2022/07/10 04:40:16;;;;;;;11.73;3.90;;;;;;;;;;5134769;27;20451;-74
2022/07/10 04:42:43;;;;;;;11.27;4.23;;;;;;;;;;5135753;27;20457;-74
2022/07/10 04:45:12;;;;;;;12.10;4.50;;;;;;;;;;5134652;27;20458;-73
2022/07/10 04:47:39;;;;;;;11.50;4.43;;;;;;;;;;5134687;27;20537;-73
2022/07/10 04:50:06;;;;;;;10.30;4.33;;;;;;;;;;5134440;27;20438;-72
2022/07/10 04:52:33;;;;;;;11.77;4.60;;;;;;;;;;5138309;27;20450;-73
2022/07/10 04:55:01;;;;;;;11.40;4.47;;;;;;;;;;5134388;27;20442;-73
2022/07/10 04:57:28;;;;;;;10.63;4.00;;;;;;;;;;5134903;27;20447;-74
2022/07/10 04:59:56;;;;;;;9.63;3.70;;;;;;;;;;5134822;27;20451;-73
2022/07/10 05:02:25;;;;;;;10.40;3.97;;;;;;;;;;5134544;27;20451;-73
2022/07/10 05:04:52;;;;;;;9.37;3.33;;;;;;;;;;5134636;27;20450;-74
2022/07/10 05:07:19;;;;;;;11.00;3.63;;;;;;;;;;5134341;27;20573;-74
2022/07/10 05:09:46;;;;;;;10.40;3.20;;;;;;;;;;5134742;27;20868;-74
2022/07/10 05:12:13;;;;;;;9.87;3.43;;;;;;;;;;5144311;27;20450;-73
2022/07/10 05:14:40;;;;;;;9.37;2.83;;;;;;;;;;5136189;27;20446;-73
2022/07/10 05:17:08;;;;;;;9.83;3.57;;;;;;;;;;5133683;27;20459;-74
2022/07/10 05:19:36;;;;;;;8.97;3.20;;;;;;;;;;5133767;27;20450;-73
2022/07/10 05:22:03;;;;;;;8.93;3.10;;;;;;;;;;5132676;27;20449;-74
2022/07/10 05:24:30;;;;;;;9.00;2.80;;;;;;;;;;5134185;27;20534;-73
2022/07/10 05:26:57;;;;;;;9.07;2.80;;;;;;;;;;5133320;27;20478;-73
2022/07/10 05:29:25;;;;;;;9.70;3.00;;;;;;;;;;5134165;27;21011;-73
2022/07/10 05:31:52;;;;;;;8.90;2.60;;;;;;;;;;5134001;27;20449;-74
2022/07/10 05:34:19;;;;;;;9.33;2.33;;;;;;;;;;5132944;27;20471;-73
2022/07/10 05:36:47;;;;;;;9.37;2.70;;;;;;;;;;5133266;27;20952;-74
2022/07/10 05:39:14;;;;;;;10.23;2.53;;;;;;;;;;5133647;27;20972;-74
2022/07/10 05:41:42;;;;;;;10.60;2.70;;;;;;;;;;5133513;27;20454;-73
2022/07/10 05:44:09;;;;;;;8.63;2.10;;;;;;;;;;5133420;27;20450;-75
2022/07/10 05:46:36;;;;;;;10.70;2.80;;;;;;;;;;5133572;27;21066;-75
2022/07/10 05:49:03;;;;;;;8.53;2.27;;;;;;;;;;5133233;27;21007;-73
2022/07/10 05:51:30;;;;;;;9.03;2.53;;;;;;;;;;5133248;27;20457;-74
2022/07/10 05:53:59;;;;;;;8.67;1.77;;;;;;;;;;5133234;27;20442;-71
2022/07/10 05:56:26;;;;;;;8.70;2.17;;;;;;;;;;5133612;27;20820;-74
2022/07/10 05:58:55;;;;;;;8.60;1.80;;;;;;;;;;5133868;27;20456;-74
2022/07/10 06:01:22;;;;;;;8.90;1.90;;;;;;;;;;5132934;27;20451;-73
2022/07/10 06:03:49;;;;;;;8.93;1.67;;;;;;;;;;5133375;27;20522;-73
2022/07/10 06:06:16;;;;;;;8.70;1.37;;;;;;;;;;5132805;27;21011;-72
2022/07/10 06:08:44;;;;;;;10.00;1.90;;;;;;;;;;5133137;27;20992;-73
2022/07/10 06:11:12;;;;;;;8.53;1.60;;;;;;;;;;5133887;27;20450;-73
2022/07/10 06:13:40;;;;;;;8.70;1.70;;;;;;;;;;5139308;27;20443;-73
2022/07/10 06:16:07;;;;;;;9.17;1.80;;;;;;;;;;5132671;27;20450;-74
2022/07/10 06:18:34;;;;;;;8.40;1.50;;;;;;;;;;5133098;27;21052;-73
2022/07/10 06:21:01;;;;;;;9.03;1.70;;;;;;;;;;5132264;27;20478;-73
2022/07/10 06:23:28;;;;;;;8.17;1.53;;;;;;;;;;5132997;27;20462;-74
2022/07/10 06:25:56;;;;;;;8.23;1.70;;;;;;;;;;5133232;27;20869;-74
2022/07/10 06:28:24;;;;;;;8.00;1.47;;;;;;;;;;5132968;27;20485;-73
2022/07/10 06:30:51;;;;;;;9.13;2.10;;;;;;;;;;5132105;27;20461;-74
2022/07/10 06:33:19;;;;;;;9.67;2.17;;;;;;;;;;5132279;27;20962;-73
2022/07/10 06:35:46;;;;;;;8.30;1.77;;;;;;;;;;5132727;27;20436;-74
2022/07/10 06:38:13;;;;;;;11.07;1.80;;;;;;;;;;5132328;27;20922;-75
2022/07/10 06:40:40;;;;;;;8.63;1.70;;;;;;;;;;5132426;27;20447;-73
2022/07/10 06:43:07;;;;;;;9.13;2.00;;;;;;;;;;5132237;27;20949;-74
2022/07/10 06:45:35;;;;;;;8.13;1.30;;;;;;;;;;5132690;27;20458;-74
2022/07/10 06:48:03;;;;;;;7.90;1.70;;;;;;;;;;5130855;27;20466;-73
2022/07/10 06:50:32;;;;;;;8.10;1.60;;;;;;;;;;5131880;27;20453;-73
2022/07/10 06:52:59;;;;;;;8.33;1.90;;;;;;;;;;5131861;27;20447;-72
2022/07/10 06:55:27;;;;;;;10.63;1.83;;;;;;;;;;5132492;27;20447;-74
2022/07/10 06:57:54;;;;;;;7.77;1.30;;;;;;;;;;5132469;27;20453;-73
2022/07/10 07:00:21;;;;;;;9.47;1.87;;;;;;;;;;5131791;27;20450;-74
2022/07/10 07:02:50;;;;;;;9.77;2.20;;;;;;;;;;5131987;27;20447;-73
2022/07/10 07:05:17;;;;;;;8.10;1.43;;;;;;;;;;5131565;27;20457;-76
2022/07/10 07:07:44;;;;;;;8.70;1.77;;;;;;;;;;5132079;27;20443;-74
2022/07/10 07:10:12;;;;;;;9.53;1.60;;;;;;;;;;5131155;27;20446;-73
2022/07/10 07:12:39;;;;;;;11.07;1.50;;;;;;;;;;5145036;27;20533;-73
2022/07/10 07:15:07;;;;;;;7.80;1.27;;;;;;;;;;5131647;27;21045;-73
2022/07/10 07:17:35;;;;;;;7.93;1.43;;;;;;;;;;5131851;27;20805;-73
2022/07/10 07:25:34;;;;;;;7.70;1.53;;;;;;;;;;5135632;27;20441;-74
2022/07/10 07:28:01;;;;;;;7.60;1.50;;;;;;;;;;5140239;27;20565;-74
2022/07/10 07:30:29;;;;;;;7.67;1.50;;;;;;;;;;5131336;27;20925;-74
2022/07/10 07:32:56;;;;;;;8.73;1.57;;;;;;;;;;5131486;27;20559;-72
2022/07/10 07:35:25;;;;;;;9.70;2.10;;;;;;;;;;5131695;27;20443;-73
2022/07/10 07:37:52;;;;;;;7.20;1.20;;;;;;;;;;5131700;27;20447;-74
2022/07/10 07:40:22;;;;;;;7.27;1.43;;;;;;;;;;5130631;27;20439;-73
2022/07/10 07:42:49;;;;;;;7.40;1.60;;;;;;;;;;5131622;27;20485;-76
2022/07/10 07:45:16;;;;;;;7.40;1.53;;;;;;;;;;5131157;27;20450;-73
2022/07/10 07:47:44;;;;;;;6.70;1.10;;;;;;;;;;5131550;28;20441;-74
2022/07/10 07:50:12;;;;;;;7.10;1.70;;;;;;;;;;5130457;28;20443;-73
2022/07/10 07:52:40;;;;;;;7.87;1.37;;;;;;;;;;5131373;28;21177;-73
2022/07/10 07:55:08;;;;;;;6.80;1.50;;;;;;;;;;5131002;28;20455;-73
2022/07/10 07:57:35;;;;;;;7.17;1.37;;;;;;;;;;5131426;28;20451;-74
2022/07/10 08:00:02;;;;;;;7.50;1.80;;;;;;;;;;5132636;27;20461;-74
2022/07/10 08:02:29;;;;;;;6.60;1.27;;;;;;;;;;5135722;27;20458;-75
2022/07/10 08:04:56;;;;;;;8.40;1.60;;;;;;;;;;5135206;27;20799;-72
2022/07/10 08:07:23;;;;;;;9.33;1.60;;;;;;;;;;5136003;27;20439;-74
2022/07/10 08:09:52;;;;;;;7.13;1.10;;;;;;;;;;5135531;27;20569;-74
2022/07/10 08:12:19;;;;;;;6.40;1.20;;;;;;;;;;5145941;27;20505;-74
2022/07/10 08:14:46;;;;;;;8.10;1.07;;;;;;;;;;5137452;27;20458;-73
2022/07/10 08:17:13;;;;;;;6.80;1.20;;;;;;;;;;5135162;27;20461;-73
2022/07/10 08:19:40;;;;;;;6.37;1.20;;;;;;;;;;5134959;27;20925;-73
2022/07/10 08:22:07;;;;;;;8.27;1.60;;;;;;;;;;5134705;27;20461;-73
2022/07/10 08:24:35;;;;;;;6.30;1.10;;;;;;;;;;5135820;27;20525;-73
2022/07/10 08:27:03;;;;;;;9.40;1.60;;;;;;;;;;5138062;27;20442;-76
2022/07/10 08:29:30;;;;;;;8.80;1.20;;;;;;;;;;5139415;27;20479;-74
2022/07/10 08:31:57;;;;;;;6.80;1.40;;;;;;;;;;5136051;27;20816;-73
2022/07/10 08:34:24;;;;;;;7.10;1.53;;;;;;;;;;5135340;27;20477;-73
2022/07/10 08:36:52;;;;;;;6.30;1.50;;;;;;;;;;5135212;27;20439;-74
2022/07/10 08:39:20;;;;;;;6.60;1.40;;;;;;;;;;5135002;27;20457;-74
2022/07/10 08:41:50;;;;;;;8.10;1.10;;;;;;;;;;5134576;27;20549;-74
2022/07/10 08:44:19;;;;;;;6.50;1.13;;;;;;;;;;5121640;27;20542;-74
2022/07/10 08:46:46;;;;;;;10.10;1.40;;;;;;;;;;5135452;27;20439;-75
2022/07/10 08:49:14;;;;;;;6.93;1.37;;;;;;;;;;5134665;27;20483;-74
2022/07/10 08:51:42;;;;;;;6.70;1.70;;;;;;;;;;5134436;27;20443;-73
2022/07/10 08:54:10;;;;;;;7.20;1.50;;;;;;;;;;5134448;27;20443;-72
2022/07/10 08:56:37;;;;;;;9.23;1.33;;;;;;;;;;5134602;27;20451;-75
2022/07/10 08:59:05;;;;;;;7.10;1.50;;;;;;;;;;5134405;27;20447;-75
2022/07/10 09:01:33;;;;;;;8.67;1.30;;;;;;;;;;5134231;27;20952;-73
2022/07/10 09:04:01;;;;;;;7.10;1.60;;;;;;;;;;5134060;27;20454;-73
2022/07/10 09:06:29;;;;;;;6.10;0.97;;;;;;;;;;5134616;27;20443;-73
2022/07/10 09:09:04;;;;;;;6.90;1.43;;;;;;;;;;5134122;27;20521;-72
2022/07/10 09:11:31;;;;;;;7.97;1.23;;;;;;;;;;5137668;27;20481;-74
2022/07/10 09:13:59;;;;;;;6.40;1.10;;;;;;;;;;5142396;27;20447;-73
2022/07/10 09:16:27;;;;;;;6.90;1.47;;;;;;;;;;5134526;27;20948;-73
2022/07/10 09:18:56;;;;;;;7.53;1.20;;;;;;;;;;5134746;27;20458;-73
2022/07/10 09:21:24;;;;;;;8.07;1.40;;;;;;;;;;5133931;27;20461;-74
2022/07/10 09:23:51;;;;;;;6.70;1.30;;;;;;;;;;5134523;27;20857;-74
2022/07/10 09:26:18;;;;;;;7.67;1.47;;;;;;;;;;5119854;27;20941;-73
2022/07/10 09:28:45;;;;;;;9.70;1.37;;;;;;;;;;5134299;27;20478;-73
2022/07/10 09:31:12;;;;;;;7.10;1.17;;;;;;;;;;5132012;27;20449;-73
2022/07/10 09:33:41;;;;;;;6.40;1.10;;;;;;;;;;5133197;27;20486;-73
2022/07/10 09:36:11;;;;;;;7.80;1.20;;;;;;;;;;5133606;27;20455;-73
2022/07/10 09:38:53;;;;;;;6.90;1.00;;;;;;;;;;5134285;27;20442;-75
2022/07/10 09:41:22;;;;;;;9.20;1.27;;;;;;;;;;5133251;27;20482;-75
2022/07/10 09:43:50;;;;;;;7.13;1.47;;;;;;;;;;5133813;27;20451;-74
2022/07/10 09:46:17;;;;;;;7.77;1.33;;;;;;;;;;5137608;27;20878;-75
2022/07/10 09:48:44;;;;;;;7.87;1.20;;;;;;;;;;5133409;27;20479;-72
2022/07/10 09:51:13;;;;;;;9.43;1.30;;;;;;;;;;5132911;27;20443;-76
2022/07/10 09:53:41;;;;;;;8.10;1.50;;;;;;;;;;5133627;27;20491;-73
2022/07/10 09:56:09;;;;;;;7.20;1.10;;;;;;;;;;5133490;27;20571;-74
2022/07/10 09:58:37;;;;;;;7.50;1.57;;;;;;;;;;5133599;27;20458;-74
2022/07/10 10:01:04;;;;;;;8.20;1.13;;;;;;;;;;5132732;27;20449;-73
2022/07/10 10:03:36;;;;;;;7.27;1.00;;;;;;;;;;5132865;27;20480;-73
2022/07/10 10:06:04;;;;;;;6.63;1.37;;;;;;;;;;5133209;27;20447;-74
2022/07/10 10:08:38;;;;;;;7.80;1.13;;;;;;;;;;5132167;27;20459;-74
2022/07/10 10:11:06;;;;;;;6.77;1.40;;;;;;;;;;5132980;27;20472;-73
2022/07/10 10:13:36;;;;;;;8.73;1.30;;;;;;;;;;5138821;27;20454;-74
2022/07/10 10:16:04;;;;;;;7.33;1.37;;;;;;;;;;5132546;27;20799;-73
2022/07/10 10:18:31;;;;;;;7.67;1.40;;;;;;;;;;5132413;27;20447;-73
2022/07/10 10:20:57;;;;;;;7.10;1.10;;;;;;;;;;5132345;27;20459;-75
2022/07/10 10:23:26;;;;;;;6.83;1.10;;;;;;;;;;5131909;27;20443;-75
2022/07/10 10:25:55;;;;;;;6.53;1.17;;;;;;;;;;5133344;27;20623;-77
2022/07/10 10:28:24;;;;;;;6.53;1.20;;;;;;;;;;5133131;27;20538;-76
2022/07/10 10:30:52;;;;;;;6.93;1.00;;;;;;;;;;5132309;27;20474;-76
2022/07/10 10:33:39;;;;;;;6.40;1.10;;;;;;;;;;5131625;27;20475;-76
2022/07/10 10:36:07;;;;;;;6.30;1.20;;;;;;;;;;5124567;27;20446;-74
2022/07/10 10:38:51;;;;;;;6.60;1.60;;;;;;;;;;5132122;27;20447;-74
2022/07/10 10:41:25;;;;;;;7.87;1.30;;;;;;;;;;5130752;27;20475;-74
2022/07/10 10:44:07;;;;;;;8.30;1.53;;;;;;;;;;5132483;27;20439;-76
2022/07/10 10:46:35;;;;;;;7.73;1.67;;;;;;;;;;5130432;27;20436;-75
2022/07/10 10:49:08;;;;;;;6.83;1.20;;;;;;;;;;5132107;27;20451;-75
2022/07/10 10:51:50;;;;;;;7.07;1.40;;;;;;;;;;5127802;27;20930;-76
2022/07/10 10:54:18;;;;;;;9.30;1.37;;;;;;;;;;5131126;27;20475;-75
2022/07/10 10:56:46;;;;;;;6.60;1.00;;;;;;;;;;5131563;27;20463;-76
2022/07/10 10:59:35;;;;;;;6.97;1.30;;;;;;;;;;5131277;27;20534;-74
2022/07/10 11:02:17;;;;;;;6.63;1.20;;;;;;;;;;5118961;27;20486;-74
2022/07/10 11:04:44;;;;;;;7.23;1.13;;;;;;;;;;5131682;27;20949;-74
2022/07/10 11:07:12;;;;;;;7.27;1.23;;;;;;;;;;5130621;27;21019;-75
2022/07/10 11:09:39;;;;;;;9.23;1.27;;;;;;;;;;5127949;27;20487;-78
2022/07/10 11:12:08;;;;;;;6.70;1.33;;;;;;;;;;5136102;27;20457;-75
2022/07/10 11:14:36;;;;;;;7.33;1.20;;;;;;;;;;5132023;27;20933;-73
2022/07/10 11:17:03;;;;;;;6.63;1.20;;;;;;;;;;5131857;27;20453;-73
2022/07/10 11:19:32;;;;;;;7.77;1.10;;;;;;;;;;5131503;27;20537;-72
2022/07/10 11:22:09;;;;;;;6.57;0.97;;;;;;;;;;5131388;27;20798;-74
2022/07/10 11:24:51;;;;;;;6.80;1.50;;;;;;;;;;5131599;27;20449;-75
2022/07/10 11:27:31;;;;;;;7.03;1.10;;;;;;;;;;5128874;27;20461;-75
2022/07/10 11:29:59;;;;;;;7.57;1.00;;;;;;;;;;5131671;27;20478;-76
2022/07/10 11:32:26;;;;;;;7.50;1.40;;;;;;;;;;5132866;27;20458;-78
2022/07/10 11:34:54;;;;;;;6.90;1.10;;;;;;;;;;5143391;27;20534;-76
2022/07/10 11:37:22;;;;;;;6.50;1.10;;;;;;;;;;5134849;27;20443;-78
2022/07/10 11:39:49;;;;;;;6.30;0.80;;;;;;;;;;5133674;27;20942;-75
2022/07/10 11:42:16;;;;;;;7.57;1.00;;;;;;;;;;5137630;27;20512;-74
2022/07/10 11:44:44;;;;;;;10.97;1.30;;;;;;;;;;5144399;27;20451;-73
2022/07/10 11:47:12;;;;;;;7.50;1.10;;;;;;;;;;5144602;27;20503;-73
2022/07/10 11:49:45;;;;;;;7.33;0.97;;;;;;;;;;5145679;27;20530;-74
2022/07/10 11:52:13;;;;;;;7.47;1.03;;;;;;;;;;5148445;27;20419;-77
2022/07/10 11:54:42;;;;;;;6.43;0.80;;;;;;;;;;5147468;27;20529;-75
2022/07/10 11:57:10;;;;;;;8.80;1.30;;;;;;;;;;5135776;27;20447;-72
2022/07/10 11:59:38;;;;;;;6.50;1.00;;;;;;;;;;5134375;28;20985;-72
2022/07/10 12:02:06;;;;;;;7.67;1.00;;;;;;;;;;5133307;27;20480;-74
2022/07/10 12:04:34;;;;;;;6.77;1.03;;;;;;;;;;5134321;27;20447;-72
2022/07/10 12:07:01;;;;;;;6.70;1.00;;;;;;;;;;5132591;27;20449;-75
2022/07/10 12:09:28;;;;;;;11.53;1.10;;;;;;;;;;5132216;28;20485;-73
2022/07/10 12:12:02;;;;;;;7.80;1.20;;;;;;;;;;5139286;27;20822;-72
2022/07/10 12:14:29;;;;;;;6.50;1.00;;;;;;;;;;5135395;27;20447;-73
2022/07/10 12:16:57;;;;;;;7.00;1.10;;;;;;;;;;5131483;28;20451;-73
2022/07/10 12:19:27;;;;;;;9.60;1.30;;;;;;;;;;5131425;27;20541;-75
2022/07/10 12:21:54;;;;;;;6.50;0.87;;;;;;;;;;5131566;28;20499;-74
2022/07/10 12:24:23;;;;;;;6.93;0.93;;;;;;;;;;5130715;27;20867;-73
2022/07/10 12:26:52;;;;;;;6.90;1.10;;;;;;;;;;5131298;28;20458;-73
2022/07/10 12:29:22;;;;;;;6.50;0.80;;;;;;;;;;5131033;28;20582;-72
2022/07/10 12:31:51;;;;;;;6.33;0.90;;;;;;;;;;5130796;27;20454;-73
2022/07/10 12:34:18;;;;;;;7.57;1.20;;;;;;;;;;5130202;27;20826;-73
2022/07/10 12:36:48;;;;;;;7.17;1.00;;;;;;;;;;5131476;27;20447;-73
2022/07/10 12:39:16;;;;;;;7.73;1.20;;;;;;;;;;5130157;28;20543;-73
2022/07/10 12:41:56;;;;;;;8.50;0.80;;;;;;;;;;5130877;28;20443;-74
2022/07/10 12:44:33;;;;;;;7.00;1.10;;;;;;;;;;5127674;27;20449;-73
2022/07/10 12:47:08;;;;;;;8.40;1.17;;;;;;;;;;5132366;27;20448;-74
2022/07/10 12:49:48;;;;;;;9.10;0.90;;;;;;;;;;5134573;27;20812;-75
2022/07/10 12:52:22;;;;;;;6.67;0.80;;;;;;;;;;5134583;27;20443;-73
2022/07/10 12:54:49;;;;;;;6.87;1.00;;;;;;;;;;5133871;27;20806;-76
2022/07/10 12:57:16;;;;;;;7.80;1.00;;;;;;;;;;5124532;27;20534;-74
2022/07/10 12:59:43;;;;;;;6.40;0.70;;;;;;;;;;5134312;27;20449;-74
2022/07/10 13:02:18;;;;;;;7.77;1.20;;;;;;;;;;5134046;27;20446;-75
2022/07/10 13:04:53;;;;;;;6.70;0.80;;;;;;;;;;5133210;27;20449;-75
2022/07/10 13:07:22;;;;;;;8.03;1.83;;;;;;;;;;5134196;27;20441;-76
2022/07/10 13:09:50;;;;;;;7.20;0.70;;;;;;;;;;5133651;27;20478;-74
2022/07/10 13:12:17;;;;;;;6.80;0.90;;;;;;;;;;5145086;27;20457;-74
2022/07/10 13:14:44;;;;;;;6.60;0.80;;;;;;;;;;5136508;27;21010;-74
2022/07/10 13:17:12;;;;;;;6.70;0.80;;;;;;;;;;5133750;27;20443;-72
2022/07/10 13:19:39;;;;;;;6.50;0.70;;;;;;;;;;5133607;27;20460;-76
2022/07/10 13:22:06;;;;;;;6.90;0.90;;;;;;;;;;5133148;27;20443;-76
2022/07/10 13:24:35;;;;;;;7.10;1.20;;;;;;;;;;5133999;27;20447;-75
2022/07/10 13:27:02;;;;;;;6.60;0.70;;;;;;;;;;5133450;27;20525;-76
2022/07/10 13:29:29;;;;;;;6.93;0.80;;;;;;;;;;5133333;27;20961;-71
2022/07/10 13:31:57;;;;;;;6.37;0.67;;;;;;;;;;5133166;27;20494;-75
2022/07/10 13:34:24;;;;;;;7.10;0.70;;;;;;;;;;5128398;27;20482;-75
2022/07/10 13:36:53;;;;;;;6.63;0.90;;;;;;;;;;5138294;27;20443;-76
2022/07/10 13:39:21;;;;;;;7.10;0.77;;;;;;;;;;5132233;27;20455;-73
2022/07/10 13:41:51;;;;;;;7.33;0.80;;;;;;;;;;5132381;27;20442;-75
2022/07/10 13:44:18;;;;;;;6.80;0.93;;;;;;;;;;5132137;27;20450;-76
2022/07/10 13:46:45;;;;;;;6.60;0.70;;;;;;;;;;5132536;27;20462;-74
2022/07/10 13:49:12;;;;;;;7.70;1.10;;;;;;;;;;5131237;27;20567;-73
2022/07/10 13:51:39;;;;;;;6.80;0.87;;;;;;;;;;5131171;27;20479;-74
2022/07/10 13:54:06;;;;;;;8.17;1.17;;;;;;;;;;5131484;27;20559;-73
2022/07/10 13:56:33;;;;;;;6.53;0.83;;;;;;;;;;5129390;27;20473;-73
2022/07/10 13:59:03;;;;;;;7.80;1.03;;;;;;;;;;5130609;27;20454;-74
2022/07/10 14:01:30;;;;;;;7.50;0.80;;;17.60;19.50;;;;;;5131039;27;21020;-73
2022/07/10 14:03:57;;;;;;;6.70;0.80;;;;;;;;;;5131166;27;20462;-71
2022/07/10 14:06:24;;;;;;;6.70;0.80;;;;;;;;;;5130900;27;20490;-76
2022/07/10 14:08:51;;;;;;;6.70;0.90;;;;;;;;;;5130898;27;20454;-76
2022/07/10 14:11:18;;;;;;;6.63;0.87;;;;;;;;;;5129916;27;20478;-76
2022/07/10 14:13:46;;;;;;;6.50;0.83;;;;;;;;;;5142733;27;20454;-75
2022/07/10 14:16:14;;;;;;;6.47;0.73;;;;;;;;;;5131709;27;20447;-78
2022/07/10 14:18:42;;;;;;;6.70;0.80;;;;;;;;;;5132772;27;20435;-77
2022/07/10 14:21:09;;;;;;;6.90;0.80;;;;;;;;;;5131715;27;20453;-76
2022/07/10 14:23:38;;;;;;;6.93;0.77;;;;;;;;;;5132666;27;20458;-77
2022/07/10 14:26:05;;;;;;;7.00;1.10;;;;;;;;;;5132401;27;20851;-76
2022/07/10 14:28:34;;;;;;;7.00;1.30;;;;;;;;;;5130331;27;20454;-75
2022/07/10 14:31:03;;;;;;;6.90;0.90;;;;;;;;;;5128867;27;20478;-70
2022/07/10 14:33:32;;;;;;;7.23;1.20;;;;;;;;;;5130353;27;20482;-74
2022/07/10 14:36:00;;;;;;;6.30;0.70;;;;;;;;;;5129311;27;20197;-72
2022/07/10 14:38:27;;;;;;;6.93;1.20;;;;;;;;;;5130652;27;20197;-72
2022/07/10 14:40:55;;;;;;;6.27;0.70;;;;;;;;;;5130225;27;20201;-75
2022/07/10 14:43:24;;;;;;;6.90;0.90;;;;;;;;;;5130030;27;20529;-72
2022/07/10 14:45:51;;;;;;;7.60;0.93;;;;;;;;;;5130198;27;20288;-72
2022/07/10 14:48:18;;;;;;;6.60;0.80;;;;;;;;;;5129628;27;20201;-72
2022/07/10 14:50:46;;;;;;;7.35;1.00;;;23.80;1.00;;;;;;5129565;27;20255;-72
2022/07/10 14:53:13;;;;;;;6.97;1.10;;;;;;;;;;5129456;27;20200;-71